地図

経路データ

SID SEASON NUMBER BASIN SUBBASIN NAME ISO_TIME NATURE LAT LON WMO_WIND WMO_PRES WMO_AGENCY TRACK_TYPE DIST2LAND LANDFALL IFLAG USA_AGENCY USA_ATCF_ID USA_LAT USA_LON USA_RECORD USA_STATUS USA_WIND USA_PRES USA_SSHS USA_R34_NE USA_R34_SE USA_R34_SW USA_R34_NW USA_R50_NE USA_R50_SE USA_R50_SW USA_R50_NW USA_R64_NE USA_R64_SE USA_R64_SW USA_R64_NW USA_POCI USA_ROCI USA_RMW USA_EYE TOKYO_LAT TOKYO_LON TOKYO_GRADE TOKYO_WIND TOKYO_PRES TOKYO_R50_DIR TOKYO_R50_LONG TOKYO_R50_SHORT TOKYO_R30_DIR TOKYO_R30_LONG TOKYO_R30_SHORT TOKYO_LAND CMA_LAT CMA_LON CMA_CAT CMA_WIND CMA_PRES HKO_LAT HKO_LON HKO_CAT HKO_WIND HKO_PRES NEWDELHI_LAT NEWDELHI_LON NEWDELHI_GRADE NEWDELHI_WIND NEWDELHI_PRES NEWDELHI_CI NEWDELHI_DP NEWDELHI_POCI REUNION_LAT REUNION_LON REUNION_TYPE REUNION_WIND REUNION_PRES REUNION_TNUM REUNION_CI REUNION_RMW REUNION_R34_NE REUNION_R34_SE REUNION_R34_SW REUNION_R34_NW REUNION_R50_NE REUNION_R50_SE REUNION_R50_SW REUNION_R50_NW REUNION_R64_NE REUNION_R64_SE REUNION_R64_SW REUNION_R64_NW BOM_LAT BOM_LON BOM_TYPE BOM_WIND BOM_PRES BOM_TNUM BOM_CI BOM_RMW BOM_R34_NE BOM_R34_SE BOM_R34_SW BOM_R34_NW BOM_R50_NE BOM_R50_SE BOM_R50_SW BOM_R50_NW BOM_R64_NE BOM_R64_SE BOM_R64_SW BOM_R64_NW BOM_ROCI BOM_POCI BOM_EYE BOM_POS_METHOD BOM_PRES_METHOD NADI_LAT NADI_LON NADI_CAT NADI_WIND NADI_PRES WELLINGTON_LAT WELLINGTON_LON WELLINGTON_WIND WELLINGTON_PRES DS824_LAT DS824_LON DS824_STAGE DS824_WIND DS824_PRES TD9636_LAT TD9636_LON TD9636_STAGE TD9636_WIND TD9636_PRES TD9635_LAT TD9635_LON TD9635_WIND TD9635_PRES TD9635_ROCI NEUMANN_LAT NEUMANN_LON NEUMANN_CLASS NEUMANN_WIND NEUMANN_PRES MLC_LAT MLC_LON MLC_CLASS MLC_WIND MLC_PRES USA_GUST BOM_GUST BOM_GUST_PER REUNION_GUST REUNION_GUST_PER USA_SEAHGT USA_SEARAD_NE USA_SEARAD_SE USA_SEARAD_SW USA_SEARAD_NW STORM_SPEED STORM_DIR
2000088N08090 2000 21 NI BB NOT_NAMED 2000-03-27 12:00:00 NR 7.50000 90.0000 25 1004 newdelhi main 613 613 ____O_________ -1 7.50000 90.0000 D 25 1004 1.50000 4 16 308
2000088N08090 2000 21 NI BB NOT_NAMED 2000-03-27 15:00:00 NR 8.00035 89.3643 main 695 695 ____P_________ -1 8.00035 89.3643 D 25 1005 4 14 315
2000088N08090 2000 21 NI BB NOT_NAMED 2000-03-27 18:00:00 NR 8.50000 89.0000 25 1006 newdelhi main 757 757 ____O_________ -1 8.50000 89.0000 D 25 1006 1.50000 4 11 342
2000088N08090 2000 21 NI BB NOT_NAMED 2000-03-27 21:00:00 NR 8.99983 89.0335 main 783 779 ____P_________ -1 8.99983 89.0335 D 25 1005 4 10 1
2000088N08090 2000 21 NI BB NOT_NAMED 2000-03-28 00:00:00 NR 9.50000 89.0000 25 1004 newdelhi main 811 784 ____O_________ -1 9.50000 89.0000 D 25 1004 1.50000 4 11 332
2000088N08090 2000 21 NI BB NOT_NAMED 2000-03-28 03:00:00 NR 10.0000 88.5000 25 1006 newdelhi main 784 774 ____O_________ -1 10.0000 88.5000 D 25 1006 1.50000 4 15 327
2000088N08090 2000 21 NI BB NOT_NAMED 2000-03-28 06:00:00 NR 10.7134 88.1877 main 784 783 ____P_________ -1 10.7134 88.1877 D 25 1005 4 15 343
2000088N08090 2000 21 NI BB NOT_NAMED 2000-03-28 09:00:00 NR 11.4693 88.0445 main 802 801 ____P_________ -1 11.4693 88.0445 D 25 1004 4 13 352
2000088N08090 2000 21 NI BB NOT_NAMED 2000-03-28 12:00:00 NR 12.0000 88.0000 25 1004 newdelhi main 801 794 ____O_________ -1 12.0000 88.0000 D 25 1004 1.50000 4 6 353
2000088N08090 2000 21 NI BB NOT_NAMED 2000-03-28 15:00:00 NR 12.0394 87.9801 main 801 801 ____P_________ -1 12.0394 87.9801 D 25 1004 4 0 0
2000088N08090 2000 21 NI BB NOT_NAMED 2000-03-28 18:00:00 NR 12.0000 88.0000 25 1004 newdelhi main 801 794 ____O_________ -1 12.0000 88.0000 D 25 1004 1.50000 4 1 0
2000088N08090 2000 21 NI BB NOT_NAMED 2000-03-28 21:00:00 NR 12.1648 88.0000 main 787 766 ____P_________ -1 12.1648 88.0000 D 25 1004 4 5 2
2000088N08090 2000 21 NI BB NOT_NAMED 2000-03-29 00:00:00 NR 12.5000 88.0000 25 1004 newdelhi main 766 725 ____O_________ -1 12.5000 88.0000 D 25 1004 1.50000 4 8 2
2000088N08090 2000 21 NI BB NOT_NAMED 2000-03-29 03:00:00 NR 13.0000 88.0000 30 1002 newdelhi main 725 680 ____O_________ -1 13.0000 88.0000 DD 30 1002 2.00000 6 10 1
2000088N08090 2000 21 NI BB NOT_NAMED 2000-03-29 06:00:00 NR 13.5000 88.0000 30 1002 newdelhi main 680 669 ____O_________ -1 13.5000 88.0000 DD 30 1002 2.00000 6 8 11
2000088N08090 2000 21 NI BB NOT_NAMED 2000-03-29 09:00:00 NR 13.7499 88.1565 main 676 652 ____P_________ -1 13.7499 88.1565 DD 32 1000 7 7 44
2000088N08090 2000 21 NI BB NOT_NAMED 2000-03-29 12:00:00 NR 14.0000 88.5000 35 998 newdelhi main 652 582 ____O_________ -1 14.0000 88.5000 CS 35 998 2.50000 8 11 47
2000088N08090 2000 21 NI BB NOT_NAMED 2000-03-29 15:00:00 NR 14.5000 89.0000 35 1000 newdelhi main 582 516 ____O_________ -1 14.5000 89.0000 CS 35 1000 2.50000 8 14 44
2000088N08090 2000 21 NI BB NOT_NAMED 2000-03-29 18:00:00 NR 15.0000 89.5000 35 1000 newdelhi main 516 516 ____O_________ -1 15.0000 89.5000 CS 35 1000 2.50000 8 7 44
2000088N08090 2000 21 NI BB NOT_NAMED 2000-03-29 21:00:00 NR 15.0000 89.5000 45 1000 newdelhi main 516 516 ____O_________ -1 15.0000 89.5000 CS 45 1000 3.00000 10 0 0
2000088N08090 2000 21 NI BB NOT_NAMED 2000-03-30 00:00:00 NR 15.0000 89.5000 45 998 newdelhi main 516 453 ____O_________ -1 15.0000 89.5000 CS 45 998 3.00000 10 7 44
2000088N08090 2000 21 NI BB NOT_NAMED 2000-03-30 03:00:00 NR 15.5000 90.0000 45 998 newdelhi main 453 451 ____O_________ -1 15.5000 90.0000 CS 45 998 3.00000 10 7 44
2000088N08090 2000 21 NI BB NOT_NAMED 2000-03-30 06:00:00 NR 15.5000 90.0000 35 1000 newdelhi main 453 453 ____O_________ -1 15.5000 90.0000 CS 35 1000 2.50000 8 5 178
2000088N08090 2000 21 NI BB NOT_NAMED 2000-03-30 09:00:00 NR 15.0000 90.0000 30 1000 newdelhi main 463 395 ____O_________ -1 15.0000 90.0000 DD 30 1000 2.00000 6 7 44
2000088N08090 2000 21 NI BB NOT_NAMED 2000-03-30 12:00:00 NR 16.0000 90.5000 25 1002 newdelhi main 395 ____O_________ -1 16.0000 90.5000 D 25 1002 1.50000 4 22 26

IBTrACS Databaseについて

本データベースは、米国NOAAが公開する1842年以降の世界の熱帯低気圧のベストトラックデータアーカイブInternational Best Track Archive for Climate Stewardship (IBTrACS)を、ウェブで閲覧しやすい形式に変換したものです。

最終更新日:2021-12-03